sensor_id;sensor_type;location;lat;lon;timestamp;temperature;humidity
11855;DHT22;5987;53.140;8.904;2023-06-10T00:02:34;16.70;99.90
11855;DHT22;5987;53.140;8.904;2023-06-10T00:05:39;16.70;99.90
11855;DHT22;5987;53.140;8.904;2023-06-10T00:08:43;16.60;99.90
11855;DHT22;5987;53.140;8.904;2023-06-10T00:11:49;16.60;99.90
11855;DHT22;5987;53.140;8.904;2023-06-10T00:14:53;16.50;99.90
11855;DHT22;5987;53.140;8.904;2023-06-10T00:17:56;16.50;99.90
11855;DHT22;5987;53.140;8.904;2023-06-10T00:21:01;16.40;99.90
11855;DHT22;5987;53.140;8.904;2023-06-10T00:24:07;16.30;99.90
11855;DHT22;5987;53.140;8.904;2023-06-10T00:27:14;16.20;99.90
11855;DHT22;5987;53.140;8.904;2023-06-10T00:30:18;16.20;99.90
11855;DHT22;5987;53.140;8.904;2023-06-10T00:33:21;16.10;99.90
11855;DHT22;5987;53.140;8.904;2023-06-10T00:36:26;16.10;99.90
11855;DHT22;5987;53.140;8.904;2023-06-10T00:39:30;16.00;99.90
11855;DHT22;5987;53.140;8.904;2023-06-10T00:42:34;15.90;99.90
11855;DHT22;5987;53.140;8.904;2023-06-10T00:45:37;15.90;99.90
11855;DHT22;5987;53.140;8.904;2023-06-10T00:48:42;15.90;99.90
11855;DHT22;5987;53.140;8.904;2023-06-10T00:51:48;15.80;99.90
11855;DHT22;5987;53.140;8.904;2023-06-10T00:54:52;15.70;99.90
11855;DHT22;5987;53.140;8.904;2023-06-10T00:57:56;15.70;99.90
11855;DHT22;5987;53.140;8.904;2023-06-10T01:01:00;15.70;99.90
11855;DHT22;5987;53.140;8.904;2023-06-10T01:04:04;15.60;99.90
11855;DHT22;5987;53.140;8.904;2023-06-10T01:07:14;15.50;99.90
11855;DHT22;5987;53.140;8.904;2023-06-10T01:10:27;15.50;99.90
11855;DHT22;5987;53.140;8.904;2023-06-10T01:13:36;15.40;99.90
11855;DHT22;5987;53.140;8.904;2023-06-10T01:16:44;15.40;99.90
11855;DHT22;5987;53.140;8.904;2023-06-10T01:19:53;15.30;99.90
11855;DHT22;5987;53.140;8.904;2023-06-10T01:23:00;15.20;99.90
11855;DHT22;5987;53.140;8.904;2023-06-10T01:26:09;15.20;99.90
11855;DHT22;5987;53.140;8.904;2023-06-10T01:29:17;15.10;99.90
11855;DHT22;5987;53.140;8.904;2023-06-10T01:32:28;15.10;99.90
11855;DHT22;5987;53.140;8.904;2023-06-10T01:35:37;15.10;99.90
11855;DHT22;5987;53.140;8.904;2023-06-10T01:38:45;15.00;99.90
11855;DHT22;5987;53.140;8.904;2023-06-10T01:41:50;15.00;99.90
11855;DHT22;5987;53.140;8.904;2023-06-10T01:44:55;14.90;99.90
11855;DHT22;5987;53.140;8.904;2023-06-10T01:47:59;14.90;99.90
11855;DHT22;5987;53.140;8.904;2023-06-10T01:51:03;14.80;99.90
11855;DHT22;5987;53.140;8.904;2023-06-10T01:54:08;14.80;99.90
11855;DHT22;5987;53.140;8.904;2023-06-10T01:57:12;14.80;99.90
11855;DHT22;5987;53.140;8.904;2023-06-10T02:00:16;14.80;99.90
11855;DHT22;5987;53.140;8.904;2023-06-10T02:03:20;14.80;99.90
11855;DHT22;5987;53.140;8.904;2023-06-10T02:06:24;14.70;99.90
11855;DHT22;5987;53.140;8.904;2023-06-10T02:09:28;14.80;99.90
11855;DHT22;5987;53.140;8.904;2023-06-10T02:12:32;14.70;99.90
11855;DHT22;5987;53.140;8.904;2023-06-10T02:15:36;14.70;99.90
11855;DHT22;5987;53.140;8.904;2023-06-10T02:18:40;14.70;99.90
11855;DHT22;5987;53.140;8.904;2023-06-10T02:21:45;14.70;99.90
11855;DHT22;5987;53.140;8.904;2023-06-10T02:24:50;14.70;99.90
11855;DHT22;5987;53.140;8.904;2023-06-10T02:27:54;14.70;99.90
11855;DHT22;5987;53.140;8.904;2023-06-10T02:30:57;14.80;99.90
11855;DHT22;5987;53.140;8.904;2023-06-10T02:34:02;14.80;99.90
11855;DHT22;5987;53.140;8.904;2023-06-10T02:37:06;14.80;99.90
11855;DHT22;5987;53.140;8.904;2023-06-10T02:40:11;14.70;99.90
11855;DHT22;5987;53.140;8.904;2023-06-10T02:43:15;14.80;99.90
11855;DHT22;5987;53.140;8.904;2023-06-10T02:46:19;14.80;99.90
11855;DHT22;5987;53.140;8.904;2023-06-10T02:49:23;14.80;99.90
11855;DHT22;5987;53.140;8.904;2023-06-10T02:52:29;14.90;99.90
11855;DHT22;5987;53.140;8.904;2023-06-10T02:55:34;14.90;99.90
11855;DHT22;5987;53.140;8.904;2023-06-10T02:58:38;14.90;99.90
11855;DHT22;5987;53.140;8.904;2023-06-10T03:01:42;14.90;99.90
11855;DHT22;5987;53.140;8.904;2023-06-10T03:04:46;14.80;99.90
11855;DHT22;5987;53.140;8.904;2023-06-10T03:07:52;14.80;99.90
11855;DHT22;5987;53.140;8.904;2023-06-10T03:10:57;14.80;99.90
11855;DHT22;5987;53.140;8.904;2023-06-10T03:14:01;14.80;99.90
11855;DHT22;5987;53.140;8.904;2023-06-10T03:17:05;14.80;99.90
11855;DHT22;5987;53.140;8.904;2023-06-10T03:20:11;14.80;99.90
11855;DHT22;5987;53.140;8.904;2023-06-10T03:23:17;14.70;99.90
11855;DHT22;5987;53.140;8.904;2023-06-10T03:26:22;14.70;99.90
11855;DHT22;5987;53.140;8.904;2023-06-10T03:29:26;14.70;99.90
11855;DHT22;5987;53.140;8.904;2023-06-10T03:32:30;14.70;99.90
11855;DHT22;5987;53.140;8.904;2023-06-10T03:35:33;14.70;99.90
11855;DHT22;5987;53.140;8.904;2023-06-10T03:38:38;14.70;99.90
11855;DHT22;5987;53.140;8.904;2023-06-10T03:41:43;14.70;99.90
11855;DHT22;5987;53.140;8.904;2023-06-10T03:44:46;14.70;99.90
11855;DHT22;5987;53.140;8.904;2023-06-10T03:47:50;14.50;99.90
11855;DHT22;5987;53.140;8.904;2023-06-10T03:50:54;14.50;99.90
11855;DHT22;5987;53.140;8.904;2023-06-10T03:53:58;14.40;99.90
11855;DHT22;5987;53.140;8.904;2023-06-10T03:57:03;14.30;99.90
11855;DHT22;5987;53.140;8.904;2023-06-10T04:00:08;14.30;99.90
11855;DHT22;5987;53.140;8.904;2023-06-10T04:03:14;14.40;99.90
11855;DHT22;5987;53.140;8.904;2023-06-10T04:06:18;14.40;99.90
11855;DHT22;5987;53.140;8.904;2023-06-10T04:09:21;14.30;99.90
11855;DHT22;5987;53.140;8.904;2023-06-10T04:12:26;14.30;99.90
11855;DHT22;5987;53.140;8.904;2023-06-10T04:15:30;14.30;99.90
11855;DHT22;5987;53.140;8.904;2023-06-10T04:18:35;14.20;99.90
11855;DHT22;5987;53.140;8.904;2023-06-10T04:21:39;14.30;99.90
11855;DHT22;5987;53.140;8.904;2023-06-10T04:24:42;14.30;99.90
11855;DHT22;5987;53.140;8.904;2023-06-10T04:27:47;14.40;99.90
11855;DHT22;5987;53.140;8.904;2023-06-10T04:30:51;14.40;99.90
11855;DHT22;5987;53.140;8.904;2023-06-10T04:33:54;14.40;99.90
11855;DHT22;5987;53.140;8.904;2023-06-10T04:36:58;14.50;99.90
11855;DHT22;5987;53.140;8.904;2023-06-10T04:40:02;14.50;99.90
11855;DHT22;5987;53.140;8.904;2023-06-10T04:43:08;14.50;99.90
11855;DHT22;5987;53.140;8.904;2023-06-10T04:46:12;14.40;99.90
11855;DHT22;5987;53.140;8.904;2023-06-10T04:49:16;14.50;99.90
11855;DHT22;5987;53.140;8.904;2023-06-10T04:52:20;14.50;99.90
11855;DHT22;5987;53.140;8.904;2023-06-10T04:55:23;14.50;99.90
11855;DHT22;5987;53.140;8.904;2023-06-10T04:58:28;14.50;99.90
11855;DHT22;5987;53.140;8.904;2023-06-10T05:01:32;14.70;99.90
11855;DHT22;5987;53.140;8.904;2023-06-10T05:04:36;14.60;99.90
11855;DHT22;5987;53.140;8.904;2023-06-10T05:07:39;14.60;99.90
11855;DHT22;5987;53.140;8.904;2023-06-10T05:10:43;14.70;99.90
11855;DHT22;5987;53.140;8.904;2023-06-10T05:13:48;14.70;99.90
11855;DHT22;5987;53.140;8.904;2023-06-10T05:16:52;14.80;99.90
11855;DHT22;5987;53.140;8.904;2023-06-10T05:19:56;14.90;99.90
11855;DHT22;5987;53.140;8.904;2023-06-10T05:22:59;14.90;99.90
11855;DHT22;5987;53.140;8.904;2023-06-10T05:26:03;15.00;99.90
11855;DHT22;5987;53.140;8.904;2023-06-10T05:29:08;15.00;99.90
11855;DHT22;5987;53.140;8.904;2023-06-10T05:32:12;15.10;99.90
11855;DHT22;5987;53.140;8.904;2023-06-10T05:35:16;15.30;99.90
11855;DHT22;5987;53.140;8.904;2023-06-10T05:38:19;15.40;99.90
11855;DHT22;5987;53.140;8.904;2023-06-10T05:41:23;15.60;99.90
11855;DHT22;5987;53.140;8.904;2023-06-10T05:44:28;15.90;99.90
11855;DHT22;5987;53.140;8.904;2023-06-10T05:47:32;16.30;99.90
11855;DHT22;5987;53.140;8.904;2023-06-10T05:50:36;16.20;99.90
11855;DHT22;5987;53.140;8.904;2023-06-10T05:53:41;16.60;99.90
11855;DHT22;5987;53.140;8.904;2023-06-10T05:56:45;16.90;99.90
11855;DHT22;5987;53.140;8.904;2023-06-10T05:59:50;16.90;99.90
11855;DHT22;5987;53.140;8.904;2023-06-10T06:02:54;17.30;99.90
11855;DHT22;5987;53.140;8.904;2023-06-10T06:05:59;17.50;99.90
11855;DHT22;5987;53.140;8.904;2023-06-10T06:09:03;17.60;99.90
11855;DHT22;5987;53.140;8.904;2023-06-10T06:12:08;17.90;99.90
11855;DHT22;5987;53.140;8.904;2023-06-10T06:15:14;18.00;99.90
11855;DHT22;5987;53.140;8.904;2023-06-10T06:18:18;17.90;99.90
11855;DHT22;5987;53.140;8.904;2023-06-10T06:21:22;17.60;99.90
11855;DHT22;5987;53.140;8.904;2023-06-10T06:24:26;17.40;99.90
11855;DHT22;5987;53.140;8.904;2023-06-10T06:27:30;17.50;99.90
11855;DHT22;5987;53.140;8.904;2023-06-10T06:30:35;17.70;99.90
11855;DHT22;5987;53.140;8.904;2023-06-10T06:33:39;18.00;99.90
11855;DHT22;5987;53.140;8.904;2023-06-10T06:36:43;17.80;99.90
11855;DHT22;5987;53.140;8.904;2023-06-10T06:39:46;17.80;99.90
11855;DHT22;5987;53.140;8.904;2023-06-10T06:42:50;17.70;99.90
11855;DHT22;5987;53.140;8.904;2023-06-10T06:45:55;17.70;99.90
11855;DHT22;5987;53.140;8.904;2023-06-10T06:48:59;17.90;99.90
11855;DHT22;5987;53.140;8.904;2023-06-10T06:52:04;18.20;99.90
11855;DHT22;5987;53.140;8.904;2023-06-10T06:55:08;18.70;99.90
11855;DHT22;5987;53.140;8.904;2023-06-10T06:58:13;19.10;99.90
11855;DHT22;5987;53.140;8.904;2023-06-10T07:01:18;19.20;99.90
11855;DHT22;5987;53.140;8.904;2023-06-10T07:04:22;19.40;99.90
11855;DHT22;5987;53.140;8.904;2023-06-10T07:07:26;19.70;99.90
11855;DHT22;5987;53.140;8.904;2023-06-10T07:10:30;19.90;99.90
11855;DHT22;5987;53.140;8.904;2023-06-10T07:13:34;20.20;99.90
11855;DHT22;5987;53.140;8.904;2023-06-10T07:16:39;20.40;99.90
11855;DHT22;5987;53.140;8.904;2023-06-10T07:19:43;20.70;99.90
11855;DHT22;5987;53.140;8.904;2023-06-10T07:22:46;20.40;99.90
11855;DHT22;5987;53.140;8.904;2023-06-10T07:25:50;20.80;99.90
11855;DHT22;5987;53.140;8.904;2023-06-10T07:28:53;21.30;99.90
11855;DHT22;5987;53.140;8.904;2023-06-10T07:31:59;21.60;99.90
11855;DHT22;5987;53.140;8.904;2023-06-10T07:35:02;21.80;99.90
11855;DHT22;5987;53.140;8.904;2023-06-10T07:38:06;22.10;99.90
11855;DHT22;5987;53.140;8.904;2023-06-10T07:41:10;22.40;99.90
11855;DHT22;5987;53.140;8.904;2023-06-10T07:44:14;22.40;99.90
11855;DHT22;5987;53.140;8.904;2023-06-10T07:47:19;22.40;99.90
11855;DHT22;5987;53.140;8.904;2023-06-10T07:50:23;22.50;99.90
11855;DHT22;5987;53.140;8.904;2023-06-10T07:53:26;22.60;99.90
11855;DHT22;5987;53.140;8.904;2023-06-10T07:56:30;22.80;99.90
11855;DHT22;5987;53.140;8.904;2023-06-10T07:59:34;22.90;99.90
11855;DHT22;5987;53.140;8.904;2023-06-10T08:02:39;22.60;99.90
11855;DHT22;5987;53.140;8.904;2023-06-10T08:05:44;22.50;99.90
11855;DHT22;5987;53.140;8.904;2023-06-10T08:08:47;22.80;99.90
11855;DHT22;5987;53.140;8.904;2023-06-10T08:11:51;23.20;99.90
11855;DHT22;5987;53.140;8.904;2023-06-10T08:14:54;23.40;98.70
11855;DHT22;5987;53.140;8.904;2023-06-10T08:18:00;23.30;98.20
11855;DHT22;5987;53.140;8.904;2023-06-10T08:21:03;23.30;97.60
11855;DHT22;5987;53.140;8.904;2023-06-10T08:24:08;23.40;98.00
11855;DHT22;5987;53.140;8.904;2023-06-10T08:27:12;23.60;96.30
11855;DHT22;5987;53.140;8.904;2023-06-10T08:30:16;23.60;96.40
11855;DHT22;5987;53.140;8.904;2023-06-10T08:33:21;23.90;95.80
11855;DHT22;5987;53.140;8.904;2023-06-10T08:36:25;24.30;94.60
11855;DHT22;5987;53.140;8.904;2023-06-10T08:39:28;24.60;93.60
11855;DHT22;5987;53.140;8.904;2023-06-10T08:42:38;24.80;93.00
11855;DHT22;5987;53.140;8.904;2023-06-10T08:45:47;24.90;91.80
11855;DHT22;5987;53.140;8.904;2023-06-10T08:48:55;24.70;91.70
11855;DHT22;5987;53.140;8.904;2023-06-10T08:52:06;24.60;91.60
11855;DHT22;5987;53.140;8.904;2023-06-10T08:55:13;24.80;91.80
11855;DHT22;5987;53.140;8.904;2023-06-10T08:58:22;24.90;91.30
11855;DHT22;5987;53.140;8.904;2023-06-10T09:01:26;25.00;91.00
11855;DHT22;5987;53.140;8.904;2023-06-10T09:04:31;25.40;90.00
11855;DHT22;5987;53.140;8.904;2023-06-10T09:07:36;25.40;88.70
11855;DHT22;5987;53.140;8.904;2023-06-10T09:10:40;25.40;87.90
11855;DHT22;5987;53.140;8.904;2023-06-10T09:13:44;25.10;89.20
11855;DHT22;5987;53.140;8.904;2023-06-10T09:16:48;25.10;89.60
11855;DHT22;5987;53.140;8.904;2023-06-10T09:19:53;25.10;86.90
11855;DHT22;5987;53.140;8.904;2023-06-10T09:22:58;25.30;87.60
11855;DHT22;5987;53.140;8.904;2023-06-10T09:26:07;25.40;86.40
11855;DHT22;5987;53.140;8.904;2023-06-10T09:29:12;25.70;85.10
11855;DHT22;5987;53.140;8.904;2023-06-10T09:32:17;25.60;85.10
11855;DHT22;5987;53.140;8.904;2023-06-10T09:35:23;25.70;85.20
11855;DHT22;5987;53.140;8.904;2023-06-10T09:38:30;25.80;83.20
11855;DHT22;5987;53.140;8.904;2023-06-10T09:41:34;25.60;83.50
11855;DHT22;5987;53.140;8.904;2023-06-10T09:44:39;25.60;83.50
11855;DHT22;5987;53.140;8.904;2023-06-10T09:47:42;25.70;80.10
11855;DHT22;5987;53.140;8.904;2023-06-10T09:50:51;25.90;80.40
11855;DHT22;5987;53.140;8.904;2023-06-10T09:53:55;25.90;79.10
11855;DHT22;5987;53.140;8.904;2023-06-10T09:57:07;25.60;80.10
11855;DHT22;5987;53.140;8.904;2023-06-10T10:00:13;25.30;82.30
11855;DHT22;5987;53.140;8.904;2023-06-10T10:03:22;25.00;84.60
11855;DHT22;5987;53.140;8.904;2023-06-10T10:06:27;25.00;85.60
11855;DHT22;5987;53.140;8.904;2023-06-10T10:09:32;25.00;81.70
11855;DHT22;5987;53.140;8.904;2023-06-10T10:12:37;24.90;85.80
11855;DHT22;5987;53.140;8.904;2023-06-10T10:15:42;24.90;85.10
11855;DHT22;5987;53.140;8.904;2023-06-10T10:18:51;25.00;82.00
11855;DHT22;5987;53.140;8.904;2023-06-10T10:22:01;25.00;82.90
11855;DHT22;5987;53.140;8.904;2023-06-10T10:25:13;24.70;85.10
11855;DHT22;5987;53.140;8.904;2023-06-10T10:28:22;24.60;82.50
11855;DHT22;5987;53.140;8.904;2023-06-10T10:31:30;24.60;81.80
11855;DHT22;5987;53.140;8.904;2023-06-10T10:34:43;24.60;82.00
11855;DHT22;5987;53.140;8.904;2023-06-10T10:37:55;24.70;80.00
11855;DHT22;5987;53.140;8.904;2023-06-10T10:40:59;24.60;81.80
11855;DHT22;5987;53.140;8.904;2023-06-10T10:44:04;24.80;80.90
11855;DHT22;5987;53.140;8.904;2023-06-10T10:47:13;24.90;79.40
11855;DHT22;5987;53.140;8.904;2023-06-10T10:50:20;25.00;76.90
11855;DHT22;5987;53.140;8.904;2023-06-10T10:53:25;24.90;77.80
11855;DHT22;5987;53.140;8.904;2023-06-10T10:56:29;25.20;77.70
11855;DHT22;5987;53.140;8.904;2023-06-10T10:59:50;25.20;75.20
11855;DHT22;5987;53.140;8.904;2023-06-10T11:02:59;25.30;75.20
11855;DHT22;5987;53.140;8.904;2023-06-10T11:06:13;25.30;75.40
11855;DHT22;5987;53.140;8.904;2023-06-10T11:09:31;25.50;76.10
11855;DHT22;5987;53.140;8.904;2023-06-10T11:12:49;25.50;75.10
11855;DHT22;5987;53.140;8.904;2023-06-10T11:15:57;25.60;75.70
11855;DHT22;5987;53.140;8.904;2023-06-10T11:19:01;25.70;74.80
11855;DHT22;5987;53.140;8.904;2023-06-10T11:22:06;25.90;71.70
11855;DHT22;5987;53.140;8.904;2023-06-10T11:25:15;25.90;70.60
11855;DHT22;5987;53.140;8.904;2023-06-10T11:28:18;26.00;72.00
11855;DHT22;5987;53.140;8.904;2023-06-10T11:31:24;26.30;72.90
11855;DHT22;5987;53.140;8.904;2023-06-10T11:34:29;26.30;71.10
11855;DHT22;5987;53.140;8.904;2023-06-10T11:37:33;26.30;69.60
11855;DHT22;5987;53.140;8.904;2023-06-10T11:40:38;26.30;66.70
11855;DHT22;5987;53.140;8.904;2023-06-10T11:43:43;26.40;66.90
11855;DHT22;5987;53.140;8.904;2023-06-10T11:46:48;26.40;66.70
11855;DHT22;5987;53.140;8.904;2023-06-10T11:49:56;26.60;66.50
11855;DHT22;5987;53.140;8.904;2023-06-10T11:53:01;26.70;66.10
11855;DHT22;5987;53.140;8.904;2023-06-10T11:56:06;26.60;62.60
11855;DHT22;5987;53.140;8.904;2023-06-10T11:59:10;26.60;62.20
11855;DHT22;5987;53.140;8.904;2023-06-10T12:02:15;26.40;62.60
11855;DHT22;5987;53.140;8.904;2023-06-10T12:05:20;26.50;64.10
11855;DHT22;5987;53.140;8.904;2023-06-10T12:08:27;26.70;64.10
11855;DHT22;5987;53.140;8.904;2023-06-10T12:11:32;27.00;63.00
11855;DHT22;5987;53.140;8.904;2023-06-10T12:14:56;27.10;60.50
11855;DHT22;5987;53.140;8.904;2023-06-10T12:18:01;27.20;60.00
11855;DHT22;5987;53.140;8.904;2023-06-10T12:21:16;27.20;55.30
11855;DHT22;5987;53.140;8.904;2023-06-10T12:24:21;27.20;55.30
11855;DHT22;5987;53.140;8.904;2023-06-10T12:27:26;27.30;56.60
11855;DHT22;5987;53.140;8.904;2023-06-10T12:30:32;27.30;56.60
11855;DHT22;5987;53.140;8.904;2023-06-10T12:33:36;27.50;55.40
11855;DHT22;5987;53.140;8.904;2023-06-10T12:36:48;27.60;56.80
11855;DHT22;5987;53.140;8.904;2023-06-10T12:39:52;27.80;56.90
11855;DHT22;5987;53.140;8.904;2023-06-10T12:42:58;27.80;57.30
11855;DHT22;5987;53.140;8.904;2023-06-10T12:46:09;27.90;56.50
11855;DHT22;5987;53.140;8.904;2023-06-10T12:49:24;28.00;55.70
11855;DHT22;5987;53.140;8.904;2023-06-10T12:52:28;27.90;57.50
11855;DHT22;5987;53.140;8.904;2023-06-10T12:55:32;27.90;55.80
11855;DHT22;5987;53.140;8.904;2023-06-10T12:58:40;28.00;56.70
11855;DHT22;5987;53.140;8.904;2023-06-10T13:01:50;28.00;57.40
11855;DHT22;5987;53.140;8.904;2023-06-10T13:04:54;28.20;58.20
11855;DHT22;5987;53.140;8.904;2023-06-10T13:08:00;28.40;58.30
11855;DHT22;5987;53.140;8.904;2023-06-10T13:11:04;28.40;57.00
11855;DHT22;5987;53.140;8.904;2023-06-10T13:14:09;28.30;58.60
11855;DHT22;5987;53.140;8.904;2023-06-10T13:17:13;28.40;58.60
11855;DHT22;5987;53.140;8.904;2023-06-10T13:20:17;28.50;59.30
11855;DHT22;5987;53.140;8.904;2023-06-10T13:23:23;28.70;59.40
11855;DHT22;5987;53.140;8.904;2023-06-10T13:26:27;28.70;59.30
11855;DHT22;5987;53.140;8.904;2023-06-10T13:29:32;28.50;58.50
11855;DHT22;5987;53.140;8.904;2023-06-10T13:32:36;28.40;59.50
11855;DHT22;5987;53.140;8.904;2023-06-10T13:35:40;28.50;62.50
11855;DHT22;5987;53.140;8.904;2023-06-10T13:38:45;28.70;60.80
11855;DHT22;5987;53.140;8.904;2023-06-10T13:41:49;28.80;62.00
11855;DHT22;5987;53.140;8.904;2023-06-10T13:44:55;28.90;61.70
11855;DHT22;5987;53.140;8.904;2023-06-10T13:47:59;28.90;61.90
11855;DHT22;5987;53.140;8.904;2023-06-10T13:51:03;28.90;61.00
11855;DHT22;5987;53.140;8.904;2023-06-10T13:54:08;28.90;60.90
11855;DHT22;5987;53.140;8.904;2023-06-10T13:57:11;28.90;61.90
11855;DHT22;5987;53.140;8.904;2023-06-10T14:00:17;28.80;63.80
11855;DHT22;5987;53.140;8.904;2023-06-10T14:03:21;28.90;62.50
11855;DHT22;5987;53.140;8.904;2023-06-10T14:06:25;29.10;64.40
11855;DHT22;5987;53.140;8.904;2023-06-10T14:09:30;29.30;63.80
11855;DHT22;5987;53.140;8.904;2023-06-10T14:12:33;29.40;63.00
11855;DHT22;5987;53.140;8.904;2023-06-10T14:15:38;29.40;63.30
11855;DHT22;5987;53.140;8.904;2023-06-10T14:18:42;29.40;63.40
11855;DHT22;5987;53.140;8.904;2023-06-10T14:21:46;29.40;63.80
11855;DHT22;5987;53.140;8.904;2023-06-10T14:24:51;29.40;62.50
11855;DHT22;5987;53.140;8.904;2023-06-10T14:27:55;29.30;64.50
11855;DHT22;5987;53.140;8.904;2023-06-10T14:31:01;29.30;64.00
11855;DHT22;5987;53.140;8.904;2023-06-10T14:34:04;29.50;63.50
11855;DHT22;5987;53.140;8.904;2023-06-10T14:37:11;29.50;62.80
11855;DHT22;5987;53.140;8.904;2023-06-10T14:40:15;29.50;62.50
11855;DHT22;5987;53.140;8.904;2023-06-10T14:43:18;29.50;63.30
11855;DHT22;5987;53.140;8.904;2023-06-10T14:46:23;29.60;63.00
11855;DHT22;5987;53.140;8.904;2023-06-10T14:49:27;29.60;61.90
11855;DHT22;5987;53.140;8.904;2023-06-10T14:52:30;29.60;62.30
11855;DHT22;5987;53.140;8.904;2023-06-10T14:55:34;29.80;62.30
11855;DHT22;5987;53.140;8.904;2023-06-10T14:58:37;29.80;62.20
11855;DHT22;5987;53.140;8.904;2023-06-10T15:01:42;29.70;61.70
11855;DHT22;5987;53.140;8.904;2023-06-10T15:04:46;29.70;61.20
11855;DHT22;5987;53.140;8.904;2023-06-10T15:07:50;29.90;62.10
11855;DHT22;5987;53.140;8.904;2023-06-10T15:10:53;30.20;61.50
11855;DHT22;5987;53.140;8.904;2023-06-10T15:13:59;30.30;61.40
11855;DHT22;5987;53.140;8.904;2023-06-10T15:17:04;30.20;59.70
11855;DHT22;5987;53.140;8.904;2023-06-10T15:20:09;30.20;59.70
11855;DHT22;5987;53.140;8.904;2023-06-10T15:23:13;30.30;60.40
11855;DHT22;5987;53.140;8.904;2023-06-10T15:26:17;30.40;59.70
11855;DHT22;5987;53.140;8.904;2023-06-10T15:29:21;30.40;60.20
11855;DHT22;5987;53.140;8.904;2023-06-10T15:32:25;30.30;59.90
11855;DHT22;5987;53.140;8.904;2023-06-10T15:35:29;30.40;61.70
11855;DHT22;5987;53.140;8.904;2023-06-10T15:38:33;30.40;62.10
11855;DHT22;5987;53.140;8.904;2023-06-10T15:41:37;30.40;62.50
11855;DHT22;5987;53.140;8.904;2023-06-10T15:44:40;30.40;62.30
11855;DHT22;5987;53.140;8.904;2023-06-10T15:47:45;30.40;63.20
11855;DHT22;5987;53.140;8.904;2023-06-10T15:50:49;30.50;63.20
11855;DHT22;5987;53.140;8.904;2023-06-10T15:53:52;30.50;62.80
11855;DHT22;5987;53.140;8.904;2023-06-10T15:56:56;30.50;62.60
11855;DHT22;5987;53.140;8.904;2023-06-10T16:00:00;30.40;62.30
11855;DHT22;5987;53.140;8.904;2023-06-10T16:03:06;30.20;63.30
11855;DHT22;5987;53.140;8.904;2023-06-10T16:06:10;30.10;63.90
11855;DHT22;5987;53.140;8.904;2023-06-10T16:09:17;30.10;64.20
11855;DHT22;5987;53.140;8.904;2023-06-10T16:12:21;30.00;64.80
11855;DHT22;5987;53.140;8.904;2023-06-10T16:15:24;29.80;65.40
11855;DHT22;5987;53.140;8.904;2023-06-10T16:18:30;29.70;66.20
11855;DHT22;5987;53.140;8.904;2023-06-10T16:21:33;29.80;65.20
11855;DHT22;5987;53.140;8.904;2023-06-10T16:24:39;29.80;64.80
11855;DHT22;5987;53.140;8.904;2023-06-10T16:27:42;29.80;65.20
11855;DHT22;5987;53.140;8.904;2023-06-10T16:30:46;29.70;65.30
11855;DHT22;5987;53.140;8.904;2023-06-10T16:33:51;29.80;66.40
11855;DHT22;5987;53.140;8.904;2023-06-10T16:36:54;29.60;65.40
11855;DHT22;5987;53.140;8.904;2023-06-10T16:39:58;29.50;66.60
11855;DHT22;5987;53.140;8.904;2023-06-10T16:43:02;29.50;66.80
11855;DHT22;5987;53.140;8.904;2023-06-10T16:46:05;29.50;65.60
11855;DHT22;5987;53.140;8.904;2023-06-10T16:49:10;29.40;65.00
11855;DHT22;5987;53.140;8.904;2023-06-10T16:52:14;29.40;65.60
11855;DHT22;5987;53.140;8.904;2023-06-10T16:55:18;29.30;65.30
11855;DHT22;5987;53.140;8.904;2023-06-10T16:58:21;29.30;66.30
11855;DHT22;5987;53.140;8.904;2023-06-10T17:01:25;29.30;66.30
11855;DHT22;5987;53.140;8.904;2023-06-10T17:04:31;29.40;65.60
11855;DHT22;5987;53.140;8.904;2023-06-10T17:07:34;29.30;65.30
11855;DHT22;5987;53.140;8.904;2023-06-10T17:10:38;29.30;65.50
11855;DHT22;5987;53.140;8.904;2023-06-10T17:13:42;29.20;66.20
11855;DHT22;5987;53.140;8.904;2023-06-10T17:16:49;29.20;66.10
11855;DHT22;5987;53.140;8.904;2023-06-10T17:19:54;29.10;67.30
11855;DHT22;5987;53.140;8.904;2023-06-10T17:22:59;29.20;68.60
11855;DHT22;5987;53.140;8.904;2023-06-10T17:26:03;29.20;68.20
11855;DHT22;5987;53.140;8.904;2023-06-10T17:29:08;29.10;66.40
11855;DHT22;5987;53.140;8.904;2023-06-10T17:32:12;29.00;66.70
11855;DHT22;5987;53.140;8.904;2023-06-10T17:35:17;29.00;66.80
11855;DHT22;5987;53.140;8.904;2023-06-10T17:38:21;28.90;66.10
11855;DHT22;5987;53.140;8.904;2023-06-10T17:41:25;28.80;66.60
11855;DHT22;5987;53.140;8.904;2023-06-10T17:44:29;28.70;67.00
11855;DHT22;5987;53.140;8.904;2023-06-10T17:47:34;28.70;67.10
11855;DHT22;5987;53.140;8.904;2023-06-10T17:50:40;28.60;68.00
11855;DHT22;5987;53.140;8.904;2023-06-10T17:53:44;28.50;68.00
11855;DHT22;5987;53.140;8.904;2023-06-10T17:56:49;28.50;68.40
11855;DHT22;5987;53.140;8.904;2023-06-10T17:59:52;28.50;68.80
11855;DHT22;5987;53.140;8.904;2023-06-10T18:02:56;28.50;69.20
11855;DHT22;5987;53.140;8.904;2023-06-10T18:06:01;28.50;69.60
11855;DHT22;5987;53.140;8.904;2023-06-10T18:09:05;28.40;72.80
11855;DHT22;5987;53.140;8.904;2023-06-10T18:12:13;28.30;75.50
11855;DHT22;5987;53.140;8.904;2023-06-10T18:15:17;28.10;76.90
11855;DHT22;5987;53.140;8.904;2023-06-10T18:18:21;27.90;77.90
11855;DHT22;5987;53.140;8.904;2023-06-10T18:21:26;27.80;78.80
11855;DHT22;5987;53.140;8.904;2023-06-10T18:24:30;27.60;79.00
11855;DHT22;5987;53.140;8.904;2023-06-10T18:27:34;27.60;79.60
11855;DHT22;5987;53.140;8.904;2023-06-10T18:30:38;27.50;80.10
11855;DHT22;5987;53.140;8.904;2023-06-10T18:33:41;27.40;80.80
11855;DHT22;5987;53.140;8.904;2023-06-10T18:36:46;27.20;81.30
11855;DHT22;5987;53.140;8.904;2023-06-10T18:39:50;27.10;82.30
11855;DHT22;5987;53.140;8.904;2023-06-10T18:42:54;27.00;83.00
11855;DHT22;5987;53.140;8.904;2023-06-10T18:45:58;26.90;83.30
11855;DHT22;5987;53.140;8.904;2023-06-10T18:49:02;26.90;83.70
11855;DHT22;5987;53.140;8.904;2023-06-10T18:52:07;26.80;83.80
11855;DHT22;5987;53.140;8.904;2023-06-10T18:55:11;26.60;85.00
11855;DHT22;5987;53.140;8.904;2023-06-10T18:58:15;26.50;84.50
11855;DHT22;5987;53.140;8.904;2023-06-10T19:01:19;26.50;84.80
11855;DHT22;5987;53.140;8.904;2023-06-10T19:04:22;26.40;85.00
11855;DHT22;5987;53.140;8.904;2023-06-10T19:07:28;26.30;85.50
11855;DHT22;5987;53.140;8.904;2023-06-10T19:10:31;26.20;85.80
11855;DHT22;5987;53.140;8.904;2023-06-10T19:13:35;26.10;86.50
11855;DHT22;5987;53.140;8.904;2023-06-10T19:16:38;25.90;87.10
11855;DHT22;5987;53.140;8.904;2023-06-10T19:19:43;25.90;87.50
11855;DHT22;5987;53.140;8.904;2023-06-10T19:22:48;25.80;87.60
11855;DHT22;5987;53.140;8.904;2023-06-10T19:25:51;25.70;87.90
11855;DHT22;5987;53.140;8.904;2023-06-10T19:28:55;25.60;88.60
11855;DHT22;5987;53.140;8.904;2023-06-10T19:31:59;25.50;88.70
11855;DHT22;5987;53.140;8.904;2023-06-10T19:35:03;25.40;89.30
11855;DHT22;5987;53.140;8.904;2023-06-10T19:38:09;25.30;89.80
11855;DHT22;5987;53.140;8.904;2023-06-10T19:41:13;25.20;90.20
11855;DHT22;5987;53.140;8.904;2023-06-10T19:44:17;25.20;90.40
11855;DHT22;5987;53.140;8.904;2023-06-10T19:47:24;25.10;90.90